createdAt,value
2022-11-18T00:01:09.707Z,12.75
2022-11-18T00:02:21.213Z,17.75
2022-11-18T00:03:35.180Z,11.30
2022-11-18T00:04:46.614Z,13.40
2022-11-18T00:06:00.493Z,19.92
2022-11-18T00:07:12.067Z,16.80
2022-11-18T00:08:24.059Z,17.90
2022-11-18T00:09:35.517Z,13.15
2022-11-18T00:10:46.965Z,19.38
2022-11-18T00:12:16.795Z,21.00
2022-11-18T00:13:46.654Z,37.63
2022-11-18T00:14:58.429Z,34.90
2022-11-18T00:16:10.939Z,21.00
2022-11-18T00:17:22.387Z,11.82
2022-11-18T00:18:33.810Z,15.77
2022-11-18T00:19:45.317Z,21.77
2022-11-18T00:21:01.059Z,20.55
2022-11-18T00:22:13.116Z,21.58
2022-11-18T00:23:24.560Z,16.48
2022-11-18T00:24:36.012Z,18.58
2022-11-18T00:25:47.473Z,25.48
2022-11-18T00:26:59.179Z,41.63
2022-11-18T00:28:10.612Z,26.52
2022-11-18T00:29:22.667Z,25.27
2022-11-18T00:30:34.133Z,16.50
2022-11-18T00:31:45.779Z,27.83
2022-11-18T00:32:57.192Z,34.63
2022-11-18T00:34:10.893Z,22.13
2022-11-18T00:35:22.367Z,24.23
2022-11-18T00:36:33.786Z,31.35
2022-11-18T00:37:45.251Z,29.33
2022-11-18T00:38:56.759Z,34.53
2022-11-18T00:40:08.541Z,40.35
2022-11-18T00:41:19.987Z,42.22
2022-11-18T00:42:49.906Z,28.23
2022-11-18T00:44:06.515Z,21.25
2022-11-18T00:45:21.066Z,39.38
2022-11-18T00:46:32.587Z,54.28
2022-11-18T00:47:44.051Z,45.03
2022-11-18T00:48:55.516Z,33.25
2022-11-18T00:50:07.112Z,38.42
2022-11-18T00:51:18.693Z,42.25
2022-11-18T00:52:30.147Z,64.10
2022-11-18T00:53:42.137Z,56.45
2022-11-18T00:54:56.397Z,29.40
2022-11-18T00:56:08.379Z,37.13
2022-11-18T00:57:19.922Z,32.80
2022-11-18T00:58:31.463Z,28.92
2022-11-18T00:59:42.834Z,48.28
2022-11-18T01:00:54.351Z,24.58
2022-11-18T01:02:05.799Z,40.05
2022-11-18T01:03:17.243Z,27.52
2022-11-18T01:04:28.768Z,24.63
2022-11-18T01:05:40.301Z,26.38
2022-11-18T01:06:52.088Z,30.83
2022-11-18T01:08:03.924Z,25.15
2022-11-18T01:09:15.574Z,43.53
2022-11-18T01:10:29.959Z,30.13
2022-11-18T01:12:01.899Z,31.33
2022-11-18T01:13:21.110Z,23.73
2022-11-18T01:14:32.621Z,33.67
2022-11-18T01:15:45.324Z,34.40
2022-11-18T01:16:57.208Z,39.08
2022-11-18T01:18:08.777Z,36.85
2022-11-18T01:19:20.922Z,48.00
2022-11-18T01:20:32.904Z,43.95
2022-11-18T01:21:44.385Z,34.25
2022-11-18T01:22:55.883Z,38.90
2022-11-18T01:24:07.351Z,34.88
2022-11-18T01:25:18.792Z,34.03
2022-11-18T01:26:30.343Z,39.40
2022-11-18T01:27:41.820Z,29.58
2022-11-18T01:28:57.630Z,36.08
2022-11-18T01:30:09.249Z,55.05
2022-11-18T01:31:20.695Z,37.78
2022-11-18T01:32:32.143Z,33.78
2022-11-18T01:33:43.981Z,38.78
2022-11-18T01:34:58.017Z,38.40
2022-11-18T01:36:16.470Z,51.70
2022-11-18T01:37:27.890Z,46.25
2022-11-18T01:38:39.372Z,41.33
2022-11-18T01:39:50.810Z,47.63
2022-11-18T01:41:02.256Z,32.38
2022-11-18T01:42:14.905Z,43.30
2022-11-18T01:43:26.355Z,52.38
2022-11-18T01:44:57.129Z,43.30
2022-11-18T01:46:08.573Z,52.17
2022-11-18T01:47:20.375Z,44.95
2022-11-18T01:48:33.567Z,42.08
2022-11-18T01:49:45.109Z,45.17
2022-11-18T01:51:00.740Z,23.98
2022-11-18T01:52:12.488Z,30.15
2022-11-18T01:53:31.151Z,33.78
2022-11-18T01:54:44.614Z,41.38
2022-11-18T01:55:57.591Z,25.90
2022-11-18T01:57:11.553Z,21.25
2022-11-18T01:58:26.386Z,27.05
2022-11-18T01:59:39.648Z,37.92
2022-11-18T02:00:51.058Z,37.05
2022-11-18T02:02:06.085Z,32.50
2022-11-18T02:03:18.216Z,36.60
2022-11-18T02:04:29.676Z,35.67
2022-11-18T02:05:41.775Z,41.50
2022-11-18T02:06:54.360Z,47.03
2022-11-18T02:08:06.635Z,31.10
2022-11-18T02:09:18.608Z,31.83
2022-11-18T02:10:30.199Z,40.53
2022-11-18T02:11:51.011Z,31.80
2022-11-18T02:13:02.807Z,50.05
2022-11-18T02:14:14.414Z,39.95
2022-11-18T02:15:30.171Z,37.72
2022-11-18T02:16:41.608Z,25.20
2022-11-18T02:18:06.828Z,27.33
2022-11-18T02:19:36.386Z,39.45
2022-11-18T02:20:49.480Z,41.33
2022-11-18T02:22:22.159Z,25.80
2022-11-18T02:23:36.638Z,26.40
2022-11-18T02:25:06.871Z,22.77
2022-11-18T02:26:24.106Z,23.80
2022-11-18T02:27:38.619Z,33.72
2022-11-18T02:29:09.945Z,26.55
2022-11-18T02:30:21.491Z,30.42
2022-11-18T02:31:36.435Z,38.00
2022-11-18T02:32:58.787Z,38.50
2022-11-18T02:34:33.535Z,38.70
2022-11-18T02:35:52.532Z,20.48
2022-11-18T02:37:03.953Z,21.30
2022-11-18T02:38:20.067Z,27.17
2022-11-18T02:39:33.176Z,23.13
2022-11-18T02:40:46.991Z,37.53
2022-11-18T02:41:59.503Z,31.30
2022-11-18T02:43:10.915Z,31.10
2022-11-18T02:44:24.408Z,38.70
2022-11-18T02:45:37.003Z,28.70
2022-11-18T02:46:51.498Z,22.48
2022-11-18T02:48:06.363Z,29.42
2022-11-18T02:49:21.315Z,22.70
2022-11-18T02:50:34.635Z,27.02
2022-11-18T02:51:47.659Z,28.65
2022-11-18T02:53:01.441Z,44.88
2022-11-18T02:54:13.902Z,29.98
2022-11-18T02:55:28.166Z,39.47
2022-11-18T02:56:40.034Z,22.63
2022-11-18T02:57:52.000Z,20.90
2022-11-18T02:59:04.567Z,28.48
2022-11-18T03:00:16.331Z,25.92
2022-11-18T03:01:29.519Z,16.05
2022-11-18T03:02:42.781Z,30.52
2022-11-18T03:03:54.365Z,34.28
2022-11-18T03:05:06.869Z,16.25
2022-11-18T03:06:29.934Z,22.15
2022-11-18T03:07:42.795Z,36.85
2022-11-18T03:09:00.459Z,17.23
2022-11-18T03:10:12.255Z,20.40
2022-11-18T03:11:24.899Z,28.08
2022-11-18T03:12:39.179Z,16.35
2022-11-18T03:13:53.794Z,22.83
2022-11-18T03:15:34.631Z,25.67
2022-11-18T03:16:54.943Z,34.72
2022-11-18T03:18:06.436Z,24.98
2022-11-18T03:19:28.353Z,38.78
2022-11-18T03:20:47.008Z,17.35
2022-11-18T03:22:14.267Z,17.42
2022-11-18T03:23:43.859Z,27.15
2022-11-18T03:25:07.676Z,22.20
2022-11-18T03:26:22.426Z,32.63
2022-11-18T03:27:37.029Z,17.95
2022-11-18T03:29:20.862Z,27.95
2022-11-18T03:30:33.217Z,30.08
2022-11-18T03:31:49.239Z,30.25
2022-11-18T03:33:06.051Z,30.00
2022-11-18T03:34:23.447Z,20.50
2022-11-18T03:35:36.020Z,24.25
2022-11-18T03:36:51.976Z,34.53
2022-11-18T03:38:07.529Z,21.98
2022-11-18T03:39:20.432Z,27.92
2022-11-18T03:40:32.650Z,21.67
2022-11-18T03:41:46.178Z,25.63
2022-11-18T03:43:04.888Z,21.42
2022-11-18T03:44:28.048Z,24.92
2022-11-18T03:45:42.425Z,20.90
2022-11-18T03:46:59.427Z,23.33
2022-11-18T03:48:15.211Z,25.98
2022-11-18T03:49:30.283Z,32.65
2022-11-18T03:50:52.472Z,23.85
2022-11-18T03:52:07.592Z,27.67
2022-11-18T03:53:20.501Z,35.28
2022-11-18T03:54:33.470Z,27.80
2022-11-18T03:55:49.213Z,23.40
2022-11-18T03:57:02.761Z,27.38
2022-11-18T03:58:17.819Z,17.15
2022-11-18T03:59:35.331Z,23.48
2022-11-18T04:00:48.440Z,27.27
2022-11-18T04:02:05.863Z,26.55
2022-11-18T04:03:17.502Z,25.10
2022-11-18T04:04:29.145Z,23.98
2022-11-18T04:05:41.961Z,18.90
2022-11-18T04:07:19.846Z,28.70
2022-11-18T04:08:35.227Z,16.20
2022-11-18T04:10:13.342Z,21.65
2022-11-18T04:11:45.330Z,14.68
2022-11-18T04:13:15.146Z,22.10
2022-11-18T04:14:26.931Z,20.25
2022-11-18T04:15:39.283Z,25.80
2022-11-18T04:16:53.079Z,19.55
2022-11-18T04:18:04.699Z,21.58
2022-11-18T04:19:16.116Z,20.67
2022-11-18T04:20:28.525Z,13.50
2022-11-18T04:21:39.992Z,11.65
2022-11-18T04:22:51.428Z,24.83
2022-11-18T04:24:02.896Z,12.77
2022-11-18T04:25:14.835Z,11.30
2022-11-18T04:26:26.307Z,10.18
2022-11-18T04:27:37.908Z,8.02
2022-11-18T04:28:49.582Z,8.95
2022-11-18T04:30:01.026Z,7.30
2022-11-18T04:31:12.465Z,7.78
2022-11-18T04:32:23.911Z,10.75
2022-11-18T04:33:35.348Z,9.85
2022-11-18T04:34:46.766Z,15.05
2022-11-18T04:35:58.239Z,16.25
2022-11-18T04:37:09.704Z,14.05
2022-11-18T04:38:22.194Z,16.80
2022-11-18T04:39:33.787Z,17.23
2022-11-18T04:40:47.751Z,21.23
2022-11-18T04:41:59.275Z,21.45
2022-11-18T04:43:13.071Z,25.58
2022-11-18T04:44:31.508Z,27.58
2022-11-18T04:45:42.959Z,17.85
2022-11-18T04:46:55.143Z,11.40
2022-11-18T04:48:06.699Z,12.68
2022-11-18T04:49:18.634Z,12.60
2022-11-18T04:50:30.316Z,13.90
2022-11-18T04:51:42.331Z,12.40
2022-11-18T04:52:53.750Z,17.08
2022-11-18T04:54:05.327Z,13.35
2022-11-18T04:55:16.851Z,21.05
2022-11-18T04:56:28.330Z,26.52
2022-11-18T04:57:40.921Z,40.40
2022-11-18T04:58:52.354Z,63.13
2022-11-18T05:00:04.453Z,57.75
2022-11-18T05:01:15.911Z,40.65
2022-11-18T05:02:27.414Z,33.08
2022-11-18T05:03:38.875Z,30.35
2022-11-18T05:04:50.343Z,23.45
2022-11-18T05:06:02.268Z,33.60
2022-11-18T05:07:14.984Z,29.50
2022-11-18T05:08:26.497Z,25.40
2022-11-18T05:09:37.940Z,22.17
2022-11-18T05:10:49.468Z,19.00
2022-11-18T05:12:20.321Z,18.10
2022-11-18T05:13:31.777Z,19.45
2022-11-18T05:14:49.325Z,20.90
2022-11-18T05:16:01.819Z,15.65
2022-11-18T05:17:13.303Z,20.17
2022-11-18T05:18:24.739Z,15.05
2022-11-18T05:19:40.088Z,16.83
2022-11-18T05:20:51.520Z,16.60
2022-11-18T05:22:03.007Z,14.68
2022-11-18T05:23:14.435Z,14.63
2022-11-18T05:24:25.940Z,16.02
2022-11-18T05:25:38.506Z,16.77
2022-11-18T05:26:53.728Z,19.13
2022-11-18T05:28:05.183Z,15.98
2022-11-18T05:29:18.120Z,17.25
2022-11-18T05:30:29.811Z,13.05
2022-11-18T05:31:41.232Z,14.95
2022-11-18T05:32:52.698Z,20.25
2022-11-18T05:34:04.427Z,20.80
2022-11-18T05:35:15.875Z,14.75
2022-11-18T05:36:27.359Z,18.52
2022-11-18T05:37:38.791Z,18.85
2022-11-18T05:38:50.576Z,21.25
2022-11-18T05:40:04.375Z,25.90
2022-11-18T05:41:36.103Z,34.78
2022-11-18T05:43:06.224Z,36.80
2022-11-18T05:44:17.699Z,34.70
2022-11-18T05:45:29.152Z,31.67
2022-11-18T05:46:40.832Z,34.38
2022-11-18T05:48:01.199Z,32.50
2022-11-18T05:49:12.663Z,33.67
2022-11-18T05:50:24.057Z,32.65
2022-11-18T05:51:35.911Z,27.60
2022-11-18T05:52:47.380Z,27.63
2022-11-18T05:53:58.866Z,25.15
2022-11-18T05:55:10.790Z,24.98
2022-11-18T05:56:27.121Z,44.08
2022-11-18T05:57:38.577Z,42.80
2022-11-18T05:58:50.093Z,32.25
2022-11-18T06:00:01.795Z,25.98
2022-11-18T06:01:14.482Z,29.45
2022-11-18T06:02:26.183Z,25.75
2022-11-18T06:03:40.565Z,24.85
2022-11-18T06:04:57.316Z,21.90
2022-11-18T06:06:09.610Z,28.70
2022-11-18T06:07:47.401Z,19.45
2022-11-18T06:09:01.828Z,26.58
2022-11-18T06:10:16.701Z,23.50
2022-11-18T06:11:28.960Z,25.42
2022-11-18T06:12:43.679Z,30.65
2022-11-18T06:13:57.627Z,20.30
2022-11-18T06:15:35.417Z,24.13
2022-11-18T06:16:49.728Z,31.48
2022-11-18T06:18:03.523Z,23.35
2022-11-18T06:19:16.733Z,30.00
2022-11-18T06:20:28.675Z,20.55
2022-11-18T06:21:40.126Z,23.48
2022-11-18T06:22:53.743Z,17.58
2022-11-18T06:24:05.763Z,21.25
2022-11-18T06:25:17.511Z,18.90
2022-11-18T06:26:29.060Z,15.57
2022-11-18T06:27:42.072Z,19.33
2022-11-18T06:28:54.598Z,11.02
2022-11-18T06:30:06.486Z,19.67
2022-11-18T06:31:18.046Z,15.60
2022-11-18T06:32:29.504Z,17.25
2022-11-18T06:33:43.279Z,30.40
2022-11-18T06:34:56.666Z,20.48
2022-11-18T06:36:08.485Z,20.42
2022-11-18T06:37:22.157Z,24.67
2022-11-18T06:38:33.617Z,23.00
2022-11-18T06:39:45.118Z,21.55
2022-11-18T06:41:00.385Z,17.98
2022-11-18T06:42:11.970Z,26.02
2022-11-18T06:43:41.925Z,24.15
2022-11-18T06:44:53.487Z,25.42
2022-11-18T06:46:24.291Z,18.55
2022-11-18T06:47:35.797Z,26.27
2022-11-18T06:48:47.628Z,29.38
2022-11-18T06:49:59.135Z,46.67
2022-11-18T06:51:10.646Z,41.92
2022-11-18T06:52:22.840Z,22.73
2022-11-18T06:53:34.906Z,21.23
2022-11-18T06:54:46.387Z,17.38
2022-11-18T06:56:02.379Z,19.27
2022-11-18T06:57:13.868Z,28.05
2022-11-18T06:58:25.338Z,23.98
2022-11-18T06:59:36.785Z,22.10
2022-11-18T07:00:48.267Z,28.33
2022-11-18T07:01:59.787Z,23.13
2022-11-18T07:03:11.195Z,26.90
2022-11-18T07:04:22.665Z,23.55
2022-11-18T07:05:34.124Z,17.05
2022-11-18T07:06:45.595Z,20.33
2022-11-18T07:07:57.123Z,18.33
2022-11-18T07:09:08.633Z,13.63
2022-11-18T07:10:20.079Z,28.42
2022-11-18T07:11:31.605Z,25.05
2022-11-18T07:12:43.089Z,30.48
2022-11-18T07:13:54.671Z,18.10
2022-11-18T07:15:06.428Z,22.05
2022-11-18T07:16:21.719Z,23.15
2022-11-18T07:17:33.149Z,18.40
2022-11-18T07:18:45.262Z,16.27
2022-11-18T07:19:56.704Z,16.13
2022-11-18T07:21:09.825Z,20.83
2022-11-18T07:22:21.391Z,17.80
2022-11-18T07:23:33.466Z,14.40
2022-11-18T07:24:45.022Z,19.23
2022-11-18T07:25:56.628Z,15.07
2022-11-18T07:27:08.063Z,18.52
2022-11-18T07:28:22.330Z,16.30
2022-11-18T07:29:33.794Z,16.15
2022-11-18T07:30:45.239Z,18.67
2022-11-18T07:31:56.894Z,17.55
2022-11-18T07:33:08.379Z,15.70
2022-11-18T07:34:19.839Z,18.98
2022-11-18T07:35:31.313Z,13.98
2022-11-18T07:36:43.221Z,16.58
2022-11-18T07:37:55.798Z,15.52
2022-11-18T07:39:07.623Z,15.60
2022-11-18T07:40:19.057Z,23.77
2022-11-18T07:41:30.972Z,21.42
2022-11-18T07:42:45.067Z,16.42
2022-11-18T07:44:00.456Z,20.23
2022-11-18T07:45:12.735Z,18.17
2022-11-18T07:46:25.628Z,16.98
2022-11-18T07:47:37.257Z,15.73
2022-11-18T07:48:50.125Z,12.98
2022-11-18T07:50:01.561Z,15.88
2022-11-18T07:51:14.491Z,15.65
2022-11-18T07:52:26.008Z,38.15
2022-11-18T07:53:40.055Z,45.65
2022-11-18T07:54:51.524Z,22.05
2022-11-18T07:56:03.314Z,27.10
2022-11-18T07:57:14.733Z,30.55
2022-11-18T07:58:26.428Z,25.15
2022-11-18T07:59:37.865Z,38.78
2022-11-18T08:00:49.280Z,50.20
2022-11-18T08:02:01.074Z,26.65
2022-11-18T08:03:14.497Z,17.60
2022-11-18T08:04:26.228Z,20.60
2022-11-18T08:05:37.709Z,13.10
2022-11-18T08:06:49.210Z,15.27
2022-11-18T08:08:00.692Z,21.00
2022-11-18T08:09:12.247Z,19.95
2022-11-18T08:10:24.871Z,14.93
2022-11-18T08:11:36.651Z,11.48
2022-11-18T08:12:48.112Z,12.15
2022-11-18T08:13:59.591Z,30.02
2022-11-18T08:15:11.177Z,22.85
2022-11-18T08:16:23.628Z,48.00
2022-11-18T08:17:35.120Z,21.60
2022-11-18T08:18:46.639Z,16.13
2022-11-18T08:19:58.066Z,13.80
2022-11-18T08:21:10.109Z,17.80
2022-11-18T08:22:21.572Z,16.63
2022-11-18T08:23:37.449Z,12.95
2022-11-18T08:24:51.889Z,14.82
2022-11-18T08:26:04.812Z,10.10
2022-11-18T08:27:16.297Z,13.10
2022-11-18T08:28:27.793Z,14.35
2022-11-18T08:29:39.264Z,13.07
2022-11-18T08:30:50.720Z,11.70
2022-11-18T08:32:02.439Z,11.48
2022-11-18T08:33:13.909Z,13.20
2022-11-18T08:34:25.334Z,20.98
2022-11-18T08:35:36.824Z,13.40
2022-11-18T08:36:48.334Z,12.18
2022-11-18T08:38:00.112Z,17.85
2022-11-18T08:39:12.004Z,10.93
2022-11-18T08:40:24.028Z,12.30
2022-11-18T08:41:36.868Z,10.05
2022-11-18T08:42:48.401Z,12.43
2022-11-18T08:44:00.937Z,15.80
2022-11-18T08:45:12.704Z,10.02
2022-11-18T08:46:24.123Z,13.23
2022-11-18T08:47:36.072Z,10.35
2022-11-18T08:48:47.511Z,14.02
2022-11-18T08:49:58.959Z,8.55
2022-11-18T08:51:11.484Z,13.32
2022-11-18T08:52:25.238Z,13.70
2022-11-18T08:53:36.676Z,10.85
2022-11-18T08:54:48.110Z,14.40
2022-11-18T08:56:00.238Z,13.63
2022-11-18T08:57:11.805Z,11.30
2022-11-18T08:58:23.491Z,14.02
2022-11-18T08:59:35.040Z,17.98
2022-11-18T09:00:46.479Z,16.83
2022-11-18T09:01:58.174Z,10.27
2022-11-18T09:03:09.731Z,16.85
2022-11-18T09:04:21.304Z,22.60
2022-11-18T09:05:32.768Z,20.50
2022-11-18T09:06:44.368Z,17.25
2022-11-18T09:07:55.964Z,13.02
2022-11-18T09:09:08.348Z,12.80
2022-11-18T09:10:19.911Z,16.23
2022-11-18T09:11:31.475Z,17.42
2022-11-18T09:12:42.960Z,14.63
2022-11-18T09:15:11.270Z,12.75
2022-11-18T09:15:26.860Z,16.48
2022-11-18T09:16:38.418Z,12.98
2022-11-18T09:17:50.267Z,13.90
2022-11-18T09:19:13.087Z,13.10
2022-11-18T09:20:33.416Z,13.38
2022-11-18T09:21:44.932Z,14.07
2022-11-18T09:22:56.419Z,15.25
2022-11-18T09:24:08.576Z,14.70
2022-11-18T09:25:20.060Z,28.23
2022-11-18T09:26:31.657Z,20.60
2022-11-18T09:27:43.128Z,20.92
2022-11-18T09:28:54.871Z,15.85
2022-11-18T09:30:06.672Z,17.67
2022-11-18T09:31:20.150Z,13.15
2022-11-18T09:32:32.822Z,20.73
2022-11-18T09:33:44.406Z,14.50
2022-11-18T09:34:55.986Z,14.98
2022-11-18T09:36:21.778Z,12.13
2022-11-18T09:37:33.387Z,13.38
2022-11-18T09:38:49.849Z,14.20
2022-11-18T09:40:03.345Z,13.70
2022-11-18T09:41:21.177Z,13.60
2022-11-18T09:42:38.703Z,13.23
2022-11-18T09:43:50.128Z,11.20
2022-11-18T09:45:22.444Z,11.63
2022-11-18T09:46:48.887Z,12.20
2022-11-18T09:48:01.596Z,12.98
2022-11-18T09:49:26.540Z,15.10
2022-11-18T09:50:53.712Z,14.10
2022-11-18T09:52:07.688Z,17.45
2022-11-18T09:53:22.032Z,13.38
2022-11-18T09:54:49.253Z,14.48
2022-11-18T09:56:01.733Z,15.23
2022-11-18T09:57:15.304Z,27.92
2022-11-18T09:58:33.838Z,11.40
2022-11-18T09:59:45.447Z,22.63
2022-11-18T10:00:56.964Z,15.00
2022-11-18T10:02:28.593Z,14.40
2022-11-18T10:03:40.439Z,13.40
2022-11-18T10:04:52.552Z,12.68
2022-11-18T10:06:09.499Z,14.18
2022-11-18T10:07:26.491Z,11.70
2022-11-18T10:08:57.221Z,13.98
2022-11-18T10:10:15.281Z,12.73
2022-11-18T10:11:29.771Z,13.48
2022-11-18T10:12:46.171Z,11.68
2022-11-18T10:13:58.473Z,11.23
2022-11-18T10:15:13.008Z,15.45
2022-11-18T10:16:32.763Z,13.52
2022-11-18T10:17:51.440Z,13.05
2022-11-18T10:19:14.336Z,14.23
2022-11-18T10:20:28.606Z,12.23
2022-11-18T10:22:01.439Z,20.63
2022-11-18T10:23:15.475Z,13.60
2022-11-18T10:24:30.360Z,12.98
2022-11-18T10:25:42.567Z,10.98
2022-11-18T10:26:57.116Z,13.77
2022-11-18T10:28:16.805Z,14.63
2022-11-18T10:29:30.540Z,10.95
2022-11-18T10:30:42.137Z,14.98
2022-11-18T10:32:04.714Z,14.45
2022-11-18T10:33:22.189Z,16.13
2022-11-18T10:34:34.837Z,13.93
2022-11-18T10:35:46.347Z,15.00
2022-11-18T10:37:06.025Z,13.90
2022-11-18T10:38:18.842Z,11.13
2022-11-18T10:39:30.316Z,17.25
2022-11-18T10:40:51.000Z,13.85
2022-11-18T10:42:04.654Z,14.38
2022-11-18T10:43:51.246Z,14.10
2022-11-18T10:45:35.279Z,17.25
2022-11-18T10:46:46.820Z,11.60
2022-11-18T10:48:02.755Z,12.00
2022-11-18T10:49:16.542Z,9.68
2022-11-18T10:50:27.962Z,17.73
2022-11-18T10:51:44.278Z,16.08
2022-11-18T10:52:55.755Z,10.07
2022-11-18T10:54:15.052Z,10.07
2022-11-18T10:55:27.448Z,10.80
2022-11-18T10:56:57.740Z,10.80
2022-11-18T10:58:13.482Z,11.55
2022-11-18T10:59:31.216Z,19.70
2022-11-18T11:00:44.309Z,30.83
2022-11-18T11:02:01.961Z,23.88
2022-11-18T11:03:33.634Z,24.08
2022-11-18T11:04:46.174Z,26.48
2022-11-18T11:06:27.021Z,38.55
2022-11-18T11:07:38.755Z,15.35
2022-11-18T11:08:51.470Z,16.35
2022-11-18T11:10:05.947Z,25.42
2022-11-18T11:11:25.987Z,17.85
2022-11-18T11:12:38.995Z,15.43
2022-11-18T11:13:50.787Z,12.35
2022-11-18T11:15:06.921Z,13.43
2022-11-18T11:16:23.395Z,14.35
2022-11-18T11:18:10.494Z,15.32
2022-11-18T11:19:23.824Z,16.48
2022-11-18T11:20:35.860Z,13.82
2022-11-18T11:21:47.362Z,18.83
2022-11-18T11:22:59.102Z,20.02
2022-11-18T11:24:12.532Z,21.50
2022-11-18T11:28:59.407Z,16.42
2022-11-18T11:30:23.658Z,23.73
2022-11-18T11:31:40.889Z,15.45
2022-11-18T11:32:52.310Z,16.60
2022-11-18T11:34:03.711Z,14.23
2022-11-18T11:35:21.059Z,13.90
2022-11-18T11:36:37.507Z,16.60
2022-11-18T11:37:49.299Z,13.73
2022-11-18T11:39:19.827Z,12.73
2022-11-18T11:40:34.843Z,18.75
2022-11-18T11:41:49.051Z,17.40
2022-11-18T11:43:15.596Z,17.83
2022-11-18T11:44:41.112Z,15.10
2022-11-18T11:45:52.536Z,16.83
2022-11-18T11:47:40.853Z,18.23
2022-11-18T11:49:10.654Z,24.60
2022-11-18T11:51:00.044Z,17.73
2022-11-18T11:52:22.598Z,17.58
2022-11-18T11:53:47.577Z,21.60
2022-11-18T11:54:58.997Z,15.75
2022-11-18T11:56:29.329Z,23.85
2022-11-18T11:57:58.605Z,23.33
2022-11-18T11:59:25.778Z,24.75
2022-11-18T12:00:41.932Z,24.65
2022-11-18T12:02:02.397Z,28.17
2022-11-18T12:03:32.354Z,25.30
2022-11-18T12:04:50.392Z,17.38
2022-11-18T12:06:01.862Z,14.38
2022-11-18T12:07:17.094Z,17.77
2022-11-18T12:08:32.470Z,24.48
2022-11-18T12:09:51.321Z,15.45
2022-11-18T12:11:10.124Z,12.50
2022-11-18T12:12:36.898Z,18.67
2022-11-18T12:13:48.358Z,18.35
2022-11-18T12:15:11.908Z,17.70
2022-11-18T12:16:26.216Z,22.33
2022-11-18T12:17:49.725Z,24.35
2022-11-18T12:19:07.073Z,34.67
2022-11-18T12:20:36.649Z,23.98
2022-11-18T12:21:52.300Z,20.10
2022-11-18T12:23:12.097Z,19.17
2022-11-18T12:24:31.156Z,16.42
2022-11-18T12:25:48.817Z,14.57
2022-11-18T12:27:20.489Z,19.67
2022-11-18T12:28:33.403Z,16.08
2022-11-18T12:29:50.904Z,21.15
2022-11-18T12:31:17.730Z,22.13
2022-11-18T12:32:48.100Z,17.60
2022-11-18T12:34:16.776Z,18.65
2022-11-18T12:35:28.675Z,17.05
2022-11-18T12:36:40.484Z,21.37
2022-11-18T12:37:54.302Z,27.13
2022-11-18T12:39:18.249Z,21.10
2022-11-18T12:40:35.888Z,26.08
2022-11-18T12:42:05.789Z,22.57
2022-11-18T12:43:44.874Z,22.27
2022-11-18T12:45:16.250Z,23.73
2022-11-18T12:46:45.412Z,25.30
2022-11-18T12:47:57.411Z,27.13
2022-11-18T12:49:24.400Z,22.38
2022-11-18T12:50:49.067Z,26.05
2022-11-18T12:52:01.946Z,26.70
2022-11-18T12:53:27.509Z,21.20
2022-11-18T12:54:46.380Z,21.58
2022-11-18T12:55:58.105Z,22.42
2022-11-18T12:57:29.072Z,25.52
2022-11-18T12:58:44.892Z,31.63
2022-11-18T12:59:56.831Z,26.73
2022-11-18T13:01:11.084Z,28.67
2022-11-18T13:02:26.621Z,29.05
2022-11-18T13:03:38.249Z,26.60
2022-11-18T13:05:10.273Z,27.27
2022-11-18T13:06:23.930Z,26.80
2022-11-18T13:07:58.312Z,32.20
2022-11-18T13:09:15.551Z,23.17
2022-11-18T13:10:31.191Z,25.83
2022-11-18T13:12:01.891Z,28.87
2022-11-18T13:13:22.844Z,26.10
2022-11-18T13:14:55.130Z,23.37
2022-11-18T13:16:42.170Z,24.37
2022-11-18T13:18:04.874Z,28.83
2022-11-18T13:19:25.579Z,37.20
2022-11-18T13:20:38.273Z,38.20
2022-11-18T13:22:16.018Z,34.65
2022-11-18T13:23:49.359Z,28.70
2022-11-18T13:25:00.785Z,19.63
2022-11-18T13:26:14.959Z,22.65
2022-11-18T13:27:35.233Z,21.35
2022-11-18T13:28:56.595Z,20.00
2022-11-18T13:30:12.437Z,25.57
2022-11-18T13:31:26.917Z,20.90
2022-11-18T13:32:43.027Z,20.27
2022-11-18T13:33:54.537Z,19.77
2022-11-18T13:35:19.428Z,18.47
2022-11-18T13:36:31.490Z,18.63
2022-11-18T13:37:56.416Z,20.35
2022-11-18T13:39:23.629Z,20.13
2022-11-18T13:40:40.169Z,17.85
2022-11-18T13:42:00.933Z,20.05
2022-11-18T13:43:12.454Z,17.50
2022-11-18T13:44:25.769Z,20.17
2022-11-18T13:45:38.867Z,25.20
2022-11-18T13:46:56.671Z,17.58
2022-11-18T13:48:10.252Z,25.70
2022-11-18T13:49:33.007Z,21.33
2022-11-18T13:50:51.325Z,21.13
2022-11-18T13:52:03.012Z,21.47
2022-11-18T13:53:26.486Z,25.00
2022-11-18T13:54:40.761Z,34.00
2022-11-18T13:55:55.252Z,50.23
2022-11-18T13:57:06.830Z,34.90
2022-11-18T13:58:20.707Z,56.67
2022-11-18T13:59:34.270Z,39.67
2022-11-18T14:01:00.858Z,39.30
2022-11-18T14:02:13.790Z,28.73
2022-11-18T14:03:31.455Z,31.70
2022-11-18T14:05:08.980Z,40.80
2022-11-18T14:06:29.803Z,31.83
2022-11-18T14:07:41.548Z,39.67
2022-11-18T14:09:03.911Z,40.60
2022-11-18T14:10:16.591Z,46.20
2022-11-18T14:11:37.214Z,50.03
2022-11-18T14:12:57.212Z,34.57
2022-11-18T14:14:10.187Z,26.70
2022-11-18T14:15:32.670Z,27.95
2022-11-18T14:16:44.314Z,34.40
2022-11-18T14:17:56.906Z,31.00
2022-11-18T14:19:26.568Z,33.43
2022-11-18T14:20:38.064Z,26.70
2022-11-18T14:21:49.514Z,23.85
2022-11-18T14:23:01.531Z,76.13
2022-11-18T14:24:14.637Z,36.72
2022-11-18T14:25:26.113Z,26.87
2022-11-18T14:26:38.377Z,27.33
2022-11-18T14:27:51.017Z,53.47
2022-11-18T14:29:14.627Z,73.25
2022-11-18T14:30:26.223Z,102.13
2022-11-18T14:31:37.669Z,166.70
2022-11-18T14:33:04.145Z,137.73
2022-11-18T14:34:15.597Z,76.03
2022-11-18T14:35:30.500Z,72.38
2022-11-18T14:36:48.166Z,44.45
2022-11-18T14:38:22.445Z,35.47
2022-11-18T14:39:32.119Z,40.57
2022-11-18T14:40:43.905Z,36.17
2022-11-18T14:41:55.478Z,37.67
2022-11-18T14:43:07.173Z,36.40
2022-11-18T14:44:19.432Z,33.45
2022-11-18T14:45:31.641Z,32.35
2022-11-18T14:46:44.243Z,36.15
2022-11-18T14:47:55.766Z,43.10
2022-11-18T14:49:12.222Z,39.58
2022-11-18T14:50:23.867Z,36.92
2022-11-18T14:51:36.889Z,42.00
2022-11-18T14:52:49.776Z,44.35
2022-11-18T14:54:01.258Z,43.28
2022-11-18T14:55:12.903Z,35.25
2022-11-18T14:56:28.869Z,42.60
2022-11-18T14:57:40.346Z,38.70
2022-11-18T14:58:51.905Z,38.95
2022-11-18T15:00:04.278Z,29.33
2022-11-18T15:01:15.847Z,40.05
2022-11-18T15:02:27.407Z,31.27
2022-11-18T15:03:39.172Z,34.33
2022-11-18T15:04:52.629Z,31.10
2022-11-18T15:06:04.282Z,40.80
2022-11-18T15:07:21.773Z,37.17
2022-11-18T15:08:34.825Z,65.00
2022-11-18T15:09:46.343Z,116.30
2022-11-18T15:10:57.763Z,108.45
2022-11-18T15:12:09.428Z,100.10
2022-11-18T15:13:21.009Z,72.65
2022-11-18T15:14:32.488Z,53.05
2022-11-18T15:15:43.992Z,53.25
2022-11-18T15:16:55.696Z,43.90
2022-11-18T15:18:07.177Z,45.13
2022-11-18T15:19:18.651Z,44.00
2022-11-18T15:20:32.002Z,44.40
2022-11-18T15:21:43.736Z,36.13
2022-11-18T15:22:55.189Z,37.00
2022-11-18T15:24:06.669Z,55.38
2022-11-18T15:25:18.161Z,93.53
2022-11-18T15:26:34.257Z,64.90
2022-11-18T15:27:46.839Z,60.08
2022-11-18T15:28:58.391Z,64.38
2022-11-18T15:30:11.652Z,70.57
2022-11-18T15:31:23.967Z,72.25
2022-11-18T15:32:35.448Z,73.50
2022-11-18T15:33:48.493Z,72.00
2022-11-18T15:34:59.921Z,72.25
2022-11-18T15:36:17.502Z,72.75
2022-11-18T15:37:28.974Z,58.72
2022-11-18T15:38:40.714Z,44.63
2022-11-18T15:39:52.147Z,51.05
2022-11-18T15:41:03.596Z,48.22
2022-11-18T15:42:22.976Z,42.70
2022-11-18T15:43:34.867Z,35.03
2022-11-18T15:44:46.384Z,43.70
2022-11-18T15:45:58.613Z,41.00
2022-11-18T15:47:12.406Z,38.17
2022-11-18T15:48:24.035Z,42.92
2022-11-18T15:49:35.614Z,53.45
2022-11-18T15:50:47.133Z,41.97
2022-11-18T15:51:58.617Z,47.33
2022-11-18T15:53:11.354Z,56.00
2022-11-18T15:54:26.055Z,49.50
2022-11-18T15:55:37.502Z,39.85
2022-11-18T15:56:49.149Z,163.30
2022-11-18T15:58:00.672Z,74.70
2022-11-18T15:59:13.319Z,81.47
2022-11-18T16:00:24.763Z,92.47
2022-11-18T16:01:37.829Z,89.15
2022-11-18T16:02:49.340Z,86.72
2022-11-18T16:04:01.368Z,96.63
2022-11-18T16:05:28.367Z,79.72
2022-11-18T16:06:39.932Z,68.55
2022-11-18T16:07:54.859Z,76.90
2022-11-18T16:09:07.535Z,60.17
2022-11-18T16:10:38.811Z,58.33
2022-11-18T16:12:10.486Z,62.38
2022-11-18T16:13:22.000Z,51.95
2022-11-18T16:14:35.867Z,62.63